No se requiere un especial cuidado respecto a la situación meteorológica.   -   No hay avisos

Informes METAR

 

LEZL - Sevilla, Spain
Distancia de la estación: ENE 8km
Actualización: 19/02/2019 12:30
Parcialmente nuboso
Parcialmente nuboso
 Viento de OSO
Viento: OSO 6 km/h
Temperatura: 16°C
Rocío: 11°C
Humedad: 72%
Barómetro: 1020 hPa
Nubes: Parcialmente nuboso
Visibilidad: 10 km
Detalles de las nubes: Parcialmente nuboso 610 m
2019/02/19 11:30 LEZL 191130Z 25003KT 190V360 9999 SCT020 16/11 Q1020 NOSIG
LEMO - Morón, Spain
Distancia de la estación: SE 43km
Actualización: 19/02/2019 12:00
Poco nuboso
Poco nuboso
 Viento de SE
Viento: SE 4 km/h
Temperatura: 15°C
Rocío: 9°C
Humedad: 68%
Barómetro: 1020 hPa
Nubes: Poco nuboso
Visibilidad: 10 km
Detalles de las nubes: Poco nuboso 610 m
2019/02/19 11:00 LEMO 191100Z 14002KT 9999 FEW020 15/09 Q1020 NOSIG
LEJR - Jeréz, Spain
Distancia de la estación: S 71km
Actualización: 19/02/2019 12:30
Despejado
Despejado
 Viento de variable
Viento: variable 6 km/h
Temperatura: 17°C
Rocío: 9°C
Humedad: 59%
Barómetro: 1020 hPa
Resumen: Despejado
Visibilidad: mayor de 10 km
2019/02/19 11:30 LEJR 191130Z VRB03KT CAVOK 17/09 Q1020
 
LERT - Rota, Spain
Distancia de la estación: SSO 89km
Actualización: 19/02/2019 12:00
Despejado
Despejado
 Viento de E
Viento: E 7 km/h
Temperatura: 16°C
Rocío: 10°C
Humedad: 68%
Barómetro: 1020 hPa
Resumen: Despejado
Visibilidad: mayor de 10 km
2019/02/19 11:00 LERT 191100Z 09004KT 060V150 CAVOK 16/10 Q1020 NOSIG
LEMG - Málaga, Spain
Distancia de la estación: ESE 157km
Actualización: 19/02/2019 12:30
Poco nuboso
Poco nuboso
 Viento de S
Viento: S 15 km/h
Temperatura: 18°C
Rocío: 7°C
Humedad: 49%
Barómetro: 1021 hPa
Nubes: Poco nuboso
Visibilidad: 10 km
Detalles de las nubes: Poco nuboso 610 m
2019/02/19 11:30 LEMG 191130Z 17008KT 140V250 9999 FEW020 18/07 Q1021 NOSIG
LEBA - Córdoba, Spain
Distancia de la estación: ENE 115km
Actualización: 19/02/2019 12:30
Despejado
Despejado
 Viento de ENE
Viento: ENE 7 km/h
Temperatura: 13°C
Rocío: 7°C
Humedad: 67%
Barómetro: 1021 hPa
Resumen: Despejado
Visibilidad: mayor de 10 km
2019/02/19 11:30 LEBA 191130Z 07004KT 020V130 CAVOK 13/07 Q1021
 
LEGR - Granada, Spain
Distancia de la estación: E 198km
Actualización: 19/02/2019 12:30
Poco nuboso
Poco nuboso
 Viento de calm
Viento: Calma
Temperatura: 13°C
Rocío: 5°C
Humedad: 59%
Barómetro: 1020 hPa
Nubes: Poco nuboso
Visibilidad: 10 km
Detalles de las nubes: Poco nuboso 3353 m
2019/02/19 11:30 LEGR 191130Z 00000KT 9999 FEW110 13/05 Q1020
LEAM - Almería, Spain
Distancia de la estación: E 326km
Actualización: 19/02/2019 12:30
Despejado
Despejado
 Viento de E
Viento: E 11 km/h
Temperatura: 17°C
Rocío: 5°C
Humedad: 45%
Barómetro: 1020 hPa
Resumen: Despejado
Visibilidad: mayor de 10 km
2019/02/19 11:30 LEAM 191130Z 09006KT 040V130 CAVOK 17/05 Q1020
LEMD - Madrid/Barajas, Spain
Distancia de la estación: NNE 402km
Actualización: 19/02/2019 12:30
Despejado
Despejado
 Viento de S
Viento: S 4 km/h
Temperatura: 11°C
Rocío: 3°C
Humedad: 58%
Barómetro: 1021 hPa
Resumen: Despejado
Visibilidad: mayor de 10 km
2019/02/19 11:30 LEMD 191130Z 19002KT CAVOK 11/03 Q1021 NOSIG
 
LEVD - Valladolid, Spain
Distancia de la estación: N 492km
Actualización: 19/02/2019 12:30
Muy nuboso
Muy nuboso
 Viento de variable
Viento: variable 4 km/h
Temperatura: 7°C
Rocío: 5°C
Humedad: 87%
Barómetro: 1020 hPa
Nubes: Muy nuboso
Visibilidad: 9 km
Detalles de las nubes: Parcialmente nuboso 183 m
Muy nuboso 914 m
2019/02/19 11:30 LEVD 191130Z VRB02KT 9000 SCT006 BKN030 07/05 Q1020
LEBL - Barcelona, Spain
Distancia de la estación: NE 816km
Actualización: 19/02/2019 12:30
Muy nuboso
Muy nuboso
 Viento de ENE
Viento: ENE 11 km/h
Temperatura: 14°C
Rocío: 9°C
Humedad: 72%
Barómetro: 1023 hPa
Nubes: Muy nuboso
Visibilidad: 10 km
Detalles de las nubes: Poco nuboso 610 m
Muy nuboso 1158 m
2019/02/19 11:30 LEBL 191130Z 06006KT 350V130 9999 FEW020 BKN038 14/09 Q1023 NOSIG
LEVC - Valencia, Spain
Distancia de la estación: ENE 535km
Actualización: 19/02/2019 12:30
Poco nuboso
Poco nuboso
 Viento de variable
Viento: variable 4 km/h
Temperatura: 15°C
Rocío: 6°C
Humedad: 55%
Barómetro: 1022 hPa
Nubes: Poco nuboso
Visibilidad: 10 km
Detalles de las nubes: Poco nuboso 914 m
2019/02/19 11:30 LEVC 191130Z VRB02KT 9999 FEW030 15/06 Q1022 NOSIG